Terminal Aerodrome Forecast
Issued by NWS

Current Version | Previous Version | Graphics & Text | Print | Product List | Glossary On
Versions: 1 2 3 4 5 6 7 8 9 10 11 12 13 14 15 16 17 18 19
000
FTUS41 KILN 151726
TAFLUK
TAF
KLUK 151726Z 1518/1618 23012G22KT P6SM -SHRA OVC025
     FM151900 29014G24KT P6SM OVC025
      TEMPO 1519/1522 5SM -SHRA OVC015
     FM160100 32012KT P6SM BKN025
     FM160500 34006KT P6SM BKN040=

USA.gov is the U.S. government's official web portal to all federal, state and local government web resources and services.